createdAt,value
2023-02-24T00:00:31.587Z,33.85
2023-02-24T00:03:34.141Z,34.63
2023-02-24T00:06:43.520Z,32.47
2023-02-24T00:09:46.144Z,32.15
2023-02-24T00:12:48.514Z,35.03
2023-02-24T00:16:02.492Z,32.63
2023-02-24T00:19:06.682Z,32.00
2023-02-24T00:22:10.373Z,32.20
2023-02-24T00:25:13.794Z,26.88
2023-02-24T00:28:16.958Z,26.58
2023-02-24T00:31:19.988Z,24.65
2023-02-24T00:34:23.065Z,24.97
2023-02-24T00:37:24.397Z,25.13
2023-02-24T00:40:27.375Z,15.75
2023-02-24T00:43:29.328Z,18.27
2023-02-24T00:46:32.912Z,17.65
2023-02-24T00:49:35.389Z,10.63
2023-02-24T00:52:37.870Z,13.23
2023-02-24T00:55:39.142Z,12.55
2023-02-24T00:58:43.582Z,11.68
2023-02-24T01:01:45.478Z,14.77
2023-02-24T01:04:50.326Z,11.23
2023-02-24T01:07:51.620Z,15.03
2023-02-24T01:11:18.091Z,13.20
2023-02-24T01:14:22.841Z,9.50
2023-02-24T01:17:25.919Z,11.27
2023-02-24T01:20:29.605Z,11.60
2023-02-24T01:23:32.083Z,11.80
2023-02-24T01:26:33.587Z,11.82
2023-02-24T01:29:39.983Z,11.98
2023-02-24T01:32:42.514Z,9.98
2023-02-24T01:35:45.145Z,13.93
2023-02-24T01:38:49.842Z,9.73
2023-02-24T01:41:52.266Z,9.82
2023-02-24T01:45:14.566Z,7.80
2023-02-24T01:48:17.984Z,10.18
2023-02-24T01:51:20.466Z,12.17
2023-02-24T01:54:26.890Z,10.40
2023-02-24T01:57:31.119Z,7.45
2023-02-24T02:04:17.345Z,11.05
2023-02-24T02:07:21.404Z,11.60
2023-02-24T02:10:25.900Z,12.80
2023-02-24T02:13:28.405Z,9.65
2023-02-24T02:16:47.049Z,9.93
2023-02-24T02:20:16.511Z,8.00
2023-02-24T02:23:46.396Z,7.03
2023-02-24T02:27:11.105Z,8.47
2023-02-24T02:34:22.274Z,8.52
2023-02-24T02:37:33.836Z,6.57
2023-02-24T02:40:40.777Z,7.87
2023-02-24T02:43:50.027Z,7.53
2023-02-24T02:46:59.585Z,9.38
2023-02-24T02:50:07.717Z,11.93
2023-02-24T02:53:15.335Z,12.32
2023-02-24T02:56:19.417Z,5.17
2023-02-24T02:59:25.624Z,9.50
2023-02-24T03:02:38.706Z,6.72
2023-02-24T03:05:47.107Z,8.25
2023-02-24T03:08:54.073Z,6.20
2023-02-24T03:12:01.431Z,9.20
2023-02-24T03:15:09.975Z,6.30
2023-02-24T03:18:19.026Z,4.53
2023-02-24T03:21:32.195Z,8.80
2023-02-24T03:24:39.362Z,7.55
2023-02-24T03:27:48.462Z,7.40
2023-02-24T03:30:59.374Z,6.93
2023-02-24T03:34:07.697Z,4.78
2023-02-24T03:37:09.902Z,8.48
2023-02-24T03:40:15.397Z,11.27
2023-02-24T03:43:21.399Z,8.23
2023-02-24T03:46:24.212Z,9.60
2023-02-24T03:49:26.390Z,8.65
2023-02-24T03:52:35.829Z,8.88
2023-02-24T03:55:50.728Z,9.98
2023-02-24T03:59:04.998Z,11.43
2023-02-24T04:02:16.002Z,10.47
2023-02-24T04:05:21.436Z,10.73
2023-02-24T04:08:27.478Z,9.20
2023-02-24T04:11:36.667Z,7.15
2023-02-24T04:14:43.769Z,8.37
2023-02-24T04:17:48.034Z,6.63
2023-02-24T04:20:53.645Z,8.20
2023-02-24T04:23:57.137Z,10.02
2023-02-24T04:27:00.971Z,10.27
2023-02-24T04:30:04.540Z,9.70
2023-02-24T04:33:06.331Z,7.07
2023-02-24T04:36:09.569Z,9.77
2023-02-24T04:39:13.557Z,8.85
2023-02-24T04:42:14.981Z,9.95
2023-02-24T04:45:19.533Z,6.93
2023-02-24T04:48:20.820Z,9.97
2023-02-24T04:51:23.460Z,9.50
2023-02-24T04:54:26.891Z,8.00
2023-02-24T04:57:28.188Z,8.40
2023-02-24T05:00:36.227Z,8.93
2023-02-24T05:03:41.343Z,9.03
2023-02-24T05:06:44.997Z,7.63
2023-02-24T05:09:48.405Z,4.68
2023-02-24T05:12:49.684Z,7.20
2023-02-24T05:15:52.268Z,9.00
2023-02-24T05:19:14.133Z,8.20
2023-02-24T05:22:18.201Z,9.07
2023-02-24T05:25:21.990Z,10.60
2023-02-24T05:28:23.648Z,5.90
2023-02-24T05:31:29.034Z,5.70
2023-02-24T05:34:33.085Z,6.43
2023-02-24T05:37:38.065Z,7.80
2023-02-24T05:44:10.161Z,6.50
2023-02-24T05:47:12.970Z,9.47
2023-02-24T05:50:14.959Z,6.05
2023-02-24T05:53:16.273Z,9.52
2023-02-24T05:59:40.186Z,4.87
2023-02-24T06:02:48.646Z,5.73
2023-02-24T06:05:52.864Z,5.97
2023-02-24T06:08:54.605Z,8.25
2023-02-24T06:11:57.913Z,6.00
2023-02-24T06:14:59.606Z,4.90
2023-02-24T06:18:02.419Z,5.07
2023-02-24T06:21:04.507Z,6.40
2023-02-24T06:24:09.954Z,8.85
2023-02-24T06:27:16.912Z,6.50
2023-02-24T06:30:18.780Z,4.07
2023-02-24T06:33:22.899Z,4.80
2023-02-24T06:36:24.223Z,8.50
2023-02-24T06:39:27.040Z,6.57
2023-02-24T06:42:29.025Z,7.22
2023-02-24T06:45:31.372Z,5.27
2023-02-24T06:48:34.701Z,5.20
2023-02-24T06:51:36.184Z,6.13
2023-02-24T06:54:38.914Z,8.43
2023-02-24T06:57:43.176Z,4.57
2023-02-24T07:00:55.927Z,6.70
2023-02-24T07:07:40.449Z,5.07
2023-02-24T07:10:43.018Z,8.10
2023-02-24T07:13:47.181Z,5.00
2023-02-24T07:16:53.304Z,8.53
2023-02-24T07:19:54.717Z,7.43
2023-02-24T07:22:57.305Z,5.10
2023-02-24T07:25:59.865Z,6.35
2023-02-24T07:29:05.622Z,7.20
2023-02-24T07:32:09.820Z,5.60
2023-02-24T07:35:11.237Z,5.30
2023-02-24T07:38:34.298Z,7.70
2023-02-24T07:41:36.654Z,6.25
2023-02-24T07:44:40.180Z,6.82
2023-02-24T07:47:41.489Z,5.37
2023-02-24T07:50:44.067Z,7.03
2023-02-24T07:53:52.027Z,6.30
2023-02-24T07:56:57.257Z,8.13
2023-02-24T07:59:59.546Z,5.03
2023-02-24T08:03:02.272Z,11.70
2023-02-24T08:06:15.940Z,5.17
2023-02-24T08:09:20.359Z,5.93
2023-02-24T08:15:45.790Z,6.22
2023-02-24T08:18:48.424Z,11.07
2023-02-24T08:21:59.390Z,7.47
2023-02-24T08:31:49.558Z,4.60
2023-02-24T08:34:55.974Z,11.33
2023-02-24T08:38:03.693Z,5.63
2023-02-24T08:41:06.146Z,5.57
2023-02-24T08:44:10.617Z,7.38
2023-02-24T08:47:13.497Z,7.30
2023-02-24T08:53:39.642Z,6.83
2023-02-24T08:56:44.262Z,7.30
2023-02-24T08:59:50.474Z,7.78
2023-02-24T09:02:55.446Z,10.52
2023-02-24T09:05:58.854Z,7.13
2023-02-24T09:09:19.188Z,7.93
2023-02-24T09:12:24.069Z,8.25
2023-02-24T09:15:41.751Z,7.75
2023-02-24T09:18:44.318Z,5.05
2023-02-24T09:22:16.516Z,7.40
2023-02-24T09:28:48.837Z,5.50
2023-02-24T09:31:55.891Z,8.52
2023-02-24T09:34:57.838Z,6.25
2023-02-24T09:38:01.069Z,8.67
2023-02-24T09:41:18.250Z,7.37
2023-02-24T09:44:34.047Z,6.03
2023-02-24T09:47:50.432Z,5.45
2023-02-24T09:51:05.003Z,5.18
2023-02-24T09:54:15.980Z,6.33
2023-02-24T09:57:25.955Z,7.37
2023-02-24T10:00:34.056Z,5.68
2023-02-24T10:03:47.226Z,7.80
2023-02-24T10:10:19.429Z,8.33
2023-02-24T10:13:31.684Z,4.77
2023-02-24T10:16:44.847Z,5.55
2023-02-24T10:19:55.621Z,4.70
2023-02-24T10:26:33.215Z,5.30
2023-02-24T10:29:50.063Z,4.70
2023-02-24T10:32:58.389Z,5.22
2023-02-24T10:36:10.969Z,7.75
2023-02-24T10:39:16.200Z,8.02
2023-02-24T10:42:25.259Z,7.90
2023-02-24T10:45:34.707Z,6.80
2023-02-24T10:48:41.656Z,6.30
2023-02-24T10:51:50.576Z,5.40
2023-02-24T10:55:04.517Z,9.40
2023-02-24T10:58:08.470Z,7.90
2023-02-24T11:01:20.090Z,7.07
2023-02-24T11:04:54.501Z,5.55
2023-02-24T11:08:08.773Z,3.80
2023-02-24T11:11:24.825Z,5.32
2023-02-24T11:14:45.346Z,6.37
2023-02-24T11:17:53.765Z,6.07
2023-02-24T11:20:58.443Z,5.20
2023-02-24T11:24:01.936Z,7.78
2023-02-24T11:27:05.443Z,5.20
2023-02-24T11:30:25.827Z,4.83
2023-02-24T11:33:34.288Z,5.03
2023-02-24T11:36:45.949Z,4.90
2023-02-24T11:39:55.285Z,8.68
2023-02-24T11:43:02.696Z,7.40
2023-02-24T11:46:11.065Z,4.73
2023-02-24T11:49:27.079Z,6.27
2023-02-24T11:52:33.503Z,6.18
2023-02-24T11:55:42.946Z,4.72
2023-02-24T11:58:52.484Z,5.97
2023-02-24T12:02:02.950Z,5.30
2023-02-24T12:05:12.201Z,7.47
2023-02-24T12:08:24.012Z,7.35
2023-02-24T12:11:35.856Z,8.27
2023-02-24T12:14:40.528Z,6.13
2023-02-24T12:17:50.351Z,7.90
2023-02-24T12:20:58.683Z,5.17
2023-02-24T12:24:01.506Z,5.72
2023-02-24T12:27:15.044Z,6.15
2023-02-24T12:30:49.238Z,4.28
2023-02-24T12:34:00.705Z,4.00
2023-02-24T12:37:19.404Z,5.57
2023-02-24T12:40:34.995Z,5.88
2023-02-24T12:43:45.569Z,5.60
2023-02-24T12:46:54.728Z,4.68
2023-02-24T12:50:28.722Z,6.00
2023-02-24T12:53:37.096Z,4.60
2023-02-24T13:00:12.282Z,7.35
2023-02-24T13:06:57.470Z,3.97
2023-02-24T13:10:11.660Z,5.33
2023-02-24T13:13:20.596Z,4.25
2023-02-24T13:16:28.771Z,5.35
2023-02-24T13:19:32.552Z,4.05
2023-02-24T13:22:33.938Z,5.83
2023-02-24T13:25:37.162Z,4.72
2023-02-24T13:28:38.768Z,5.82
2023-02-24T13:31:42.854Z,5.90
2023-02-24T13:38:24.098Z,5.20
2023-02-24T13:41:41.202Z,4.85
2023-02-24T13:44:49.459Z,5.05
2023-02-24T13:48:10.910Z,4.47
2023-02-24T13:51:29.740Z,4.27
2023-02-24T13:54:55.425Z,4.88
2023-02-24T13:58:09.326Z,6.47
2023-02-24T14:01:14.150Z,4.18
2023-02-24T14:04:18.872Z,4.30
2023-02-24T14:07:23.325Z,6.17
2023-02-24T14:10:28.410Z,5.65
2023-02-24T14:13:33.386Z,5.63
2023-02-24T14:20:19.172Z,6.77
2023-02-24T14:23:23.969Z,5.33
2023-02-24T14:26:25.629Z,4.80
2023-02-24T14:29:31.190Z,6.82
2023-02-24T14:32:34.008Z,5.80
2023-02-24T14:35:42.677Z,6.93
2023-02-24T14:38:44.982Z,5.00
2023-02-24T14:41:49.126Z,6.90
2023-02-24T14:44:52.309Z,5.80
2023-02-24T14:47:56.660Z,6.63
2023-02-24T14:51:02.185Z,6.37
2023-02-24T14:54:09.590Z,7.20
2023-02-24T14:57:15.336Z,8.88
2023-02-24T15:00:23.163Z,5.78
2023-02-24T15:03:28.830Z,7.63
2023-02-24T15:06:41.217Z,6.77
2023-02-24T15:09:46.054Z,5.17
2023-02-24T15:12:52.854Z,8.15
2023-02-24T15:15:56.291Z,5.95
2023-02-24T15:19:01.626Z,5.43
2023-02-24T15:22:03.702Z,6.40
2023-02-24T15:25:19.109Z,6.47
2023-02-24T15:28:25.580Z,6.47
2023-02-24T15:31:29.791Z,7.05
2023-02-24T15:34:34.432Z,6.22
2023-02-24T15:37:42.418Z,5.40
2023-02-24T15:40:53.689Z,6.40
2023-02-24T15:43:55.617Z,5.97
2023-02-24T15:47:00.683Z,7.63
2023-02-24T15:50:03.367Z,5.38
2023-02-24T15:53:04.684Z,5.47
2023-02-24T15:56:07.913Z,4.90
2023-02-24T15:59:23.258Z,6.15
2023-02-24T16:02:25.148Z,5.85
2023-02-24T16:05:26.540Z,5.47
2023-02-24T16:08:29.699Z,8.80
2023-02-24T16:11:37.254Z,8.60
2023-02-24T16:14:40.189Z,7.25
2023-02-24T16:17:43.424Z,7.85
2023-02-24T16:20:49.297Z,10.05
2023-02-24T16:23:50.604Z,7.30
2023-02-24T16:26:52.653Z,7.80
2023-02-24T16:29:54.047Z,8.10
2023-02-24T16:32:57.256Z,7.47
2023-02-24T16:35:58.668Z,10.80
2023-02-24T16:39:00.424Z,7.53
2023-02-24T16:42:07.445Z,9.00
2023-02-24T16:45:10.565Z,8.18
2023-02-24T16:48:15.811Z,7.18
2023-02-24T16:51:17.151Z,8.30
2023-02-24T16:54:21.788Z,7.87
2023-02-24T16:57:24.838Z,8.70
2023-02-24T17:00:26.728Z,9.85
2023-02-24T17:03:34.678Z,8.65
2023-02-24T17:06:36.047Z,8.77
2023-02-24T17:09:38.610Z,8.53
2023-02-24T17:12:40.610Z,10.40
2023-02-24T17:15:43.311Z,10.48
2023-02-24T17:18:45.005Z,11.68
2023-02-24T17:21:47.545Z,10.80
2023-02-24T17:24:50.639Z,10.73
2023-02-24T17:27:55.071Z,11.40
2023-02-24T17:30:56.653Z,13.30
2023-02-24T17:37:18.946Z,12.40
2023-02-24T17:40:22.096Z,13.30
2023-02-24T17:43:24.091Z,12.65
2023-02-24T17:46:26.923Z,14.87
2023-02-24T17:49:29.642Z,15.53
2023-02-24T17:52:32.746Z,12.80
2023-02-24T17:55:34.026Z,13.18
2023-02-24T17:58:37.894Z,13.18
2023-02-24T18:01:39.324Z,14.00
2023-02-24T18:04:41.322Z,14.27
2023-02-24T18:07:42.645Z,13.90
2023-02-24T18:10:45.112Z,15.00
2023-02-24T18:17:11.004Z,15.70
2023-02-24T18:20:14.722Z,15.17
2023-02-24T18:23:17.414Z,16.50
2023-02-24T18:26:18.806Z,16.95
2023-02-24T18:29:22.002Z,15.68
2023-02-24T18:32:23.583Z,17.00
2023-02-24T18:35:26.445Z,16.97
2023-02-24T18:38:28.358Z,15.60
2023-02-24T18:41:31.098Z,15.77
2023-02-24T18:44:34.442Z,19.17
2023-02-24T18:47:35.846Z,17.07
2023-02-24T18:50:37.242Z,20.37
2023-02-24T18:53:38.690Z,20.70
2023-02-24T18:56:41.925Z,16.05
2023-02-24T18:59:44.326Z,17.95
2023-02-24T19:02:46.613Z,18.40
2023-02-24T19:05:49.407Z,19.20
2023-02-24T19:08:56.066Z,17.55
2023-02-24T19:11:58.676Z,20.33
2023-02-24T19:15:00.780Z,18.77
2023-02-24T19:18:03.387Z,20.30
2023-02-24T19:21:06.604Z,20.47
2023-02-24T19:24:10.626Z,19.88
2023-02-24T19:27:11.954Z,19.85
2023-02-24T19:30:14.575Z,18.17
2023-02-24T19:33:15.984Z,21.97
2023-02-24T19:36:18.517Z,19.67
2023-02-24T19:39:19.783Z,22.10
2023-02-24T19:42:21.168Z,20.20
2023-02-24T19:45:24.461Z,20.95
2023-02-24T19:48:25.794Z,20.97
2023-02-24T19:51:28.527Z,22.10
2023-02-24T19:54:29.809Z,21.15
2023-02-24T20:00:51.986Z,18.70
2023-02-24T20:03:55.617Z,20.30
2023-02-24T20:10:18.361Z,21.65
2023-02-24T20:13:19.667Z,24.50
2023-02-24T20:16:24.385Z,19.63
2023-02-24T20:19:27.141Z,20.25
2023-02-24T20:22:29.682Z,20.75
2023-02-24T20:25:31.000Z,20.45
2023-02-24T20:28:32.489Z,19.77
2023-02-24T20:31:34.720Z,19.27
2023-02-24T20:34:38.189Z,22.15
2023-02-24T20:37:39.517Z,20.48
2023-02-24T20:40:42.627Z,23.33
2023-02-24T20:43:44.002Z,20.37
2023-02-24T20:46:47.655Z,23.92
2023-02-24T20:53:11.372Z,20.80
2023-02-24T20:56:18.503Z,20.60
2023-02-24T20:59:22.517Z,21.20
2023-02-24T21:02:24.521Z,20.38
2023-02-24T21:08:50.260Z,23.10
2023-02-24T21:11:51.554Z,21.08
2023-02-24T21:14:54.054Z,20.20
2023-02-24T21:17:56.000Z,20.40
2023-02-24T21:20:58.587Z,21.33
2023-02-24T21:23:59.839Z,23.50
2023-02-24T21:27:02.419Z,23.42
2023-02-24T21:30:05.909Z,20.90
2023-02-24T21:33:09.800Z,22.85
2023-02-24T21:36:15.886Z,22.67
2023-02-24T21:39:18.922Z,22.90
2023-02-24T21:42:21.463Z,21.13
2023-02-24T21:45:24.033Z,20.47
2023-02-24T21:48:25.957Z,22.17
2023-02-24T21:51:29.706Z,23.98
2023-02-24T21:54:31.410Z,20.70
2023-02-24T21:57:41.092Z,22.17
2023-02-24T22:00:42.522Z,19.42
2023-02-24T22:03:46.463Z,22.27
2023-02-24T22:06:47.813Z,20.05
2023-02-24T22:09:49.590Z,21.37
2023-02-24T22:12:55.374Z,18.03
2023-02-24T22:15:59.526Z,17.55
2023-02-24T22:19:01.521Z,19.25
2023-02-24T22:22:04.577Z,15.40
2023-02-24T22:25:09.546Z,16.23
2023-02-24T22:28:12.120Z,18.67
2023-02-24T22:31:16.541Z,15.98
2023-02-24T22:34:19.936Z,18.20
2023-02-24T22:37:21.267Z,14.73
2023-02-24T22:40:23.814Z,12.37
2023-02-24T22:43:26.776Z,14.47
2023-02-24T22:46:30.528Z,14.95
2023-02-24T22:49:33.760Z,14.02
2023-02-24T22:52:35.316Z,16.45
2023-02-24T22:55:38.145Z,18.03
2023-02-24T22:58:41.518Z,12.73
2023-02-24T23:01:43.568Z,14.63
2023-02-24T23:04:46.797Z,12.32
2023-02-24T23:07:48.129Z,12.98
2023-02-24T23:10:51.071Z,13.53
2023-02-24T23:13:53.610Z,11.27
2023-02-24T23:16:54.935Z,13.48
2023-02-24T23:23:19.815Z,13.48
2023-02-24T23:26:22.642Z,12.00
2023-02-24T23:29:25.776Z,9.43
2023-02-24T23:32:28.714Z,14.73
2023-02-24T23:35:32.016Z,11.60
2023-02-24T23:38:33.706Z,10.70
2023-02-24T23:44:57.860Z,9.63
2023-02-24T23:47:59.217Z,13.48
2023-02-24T23:51:04.092Z,8.13
2023-02-24T23:54:06.659Z,9.43
2023-02-24T23:57:07.973Z,14.27
